Flugplatz Altenstadt Army Airfield

Bericht für ETHA

vom 28.02. um 02:20 UTC

Wind 22 kt aus 300°

Temperatur -1.0°C

Taupunkt -2.0°C

Luftfeuchtigkeit 93%

Luftdruck 1011 hPa

ETHA 280220Z AUTO 30022KT //// // ////// M01/M02 Q1011 ///
Keine Prognose (TAF) verfügbar.
Impressum